createdAt,value
2018-08-09T00:00:00.848Z,55.76
2018-08-09T00:00:26.986Z,56.24
2018-08-09T00:00:53.121Z,55.85
2018-08-09T00:01:19.251Z,56.24
2018-08-09T00:01:45.439Z,56.04
2018-08-09T00:02:11.594Z,56.04
2018-08-09T00:02:37.729Z,56.14
2018-08-09T00:03:03.891Z,56.14
2018-08-09T00:03:30.029Z,55.85
2018-08-09T00:03:56.169Z,55.85
2018-08-09T00:04:22.304Z,56.24
2018-08-09T00:04:48.444Z,55.94
2018-08-09T00:05:14.575Z,56.24
2018-08-09T00:05:40.719Z,56.24
2018-08-09T00:06:06.872Z,56.14
2018-08-09T00:06:33.050Z,56.24
2018-08-09T00:06:59.211Z,55.17
2018-08-09T00:07:25.343Z,55.76
2018-08-09T00:07:51.485Z,55.85
2018-08-09T00:08:17.621Z,56.43
2018-08-09T00:08:43.783Z,56.34
2018-08-09T00:09:09.927Z,56.14
2018-08-09T00:09:36.062Z,56.36
2018-08-09T00:10:02.201Z,55.88
2018-08-09T00:10:28.345Z,55.68
2018-08-09T00:10:54.482Z,56.16
2018-08-09T00:11:20.619Z,56.43
2018-08-09T00:11:46.756Z,55.94
2018-08-09T00:12:12.893Z,56.04
2018-08-09T00:12:39.034Z,56.14
2018-08-09T00:13:05.160Z,56.34
2018-08-09T00:13:31.298Z,56.5
2018-08-09T00:13:57.461Z,57.08
2018-08-09T00:14:23.595Z,57.18
2018-08-09T00:14:49.733Z,57.37
2018-08-09T00:15:15.865Z,57.37
2018-08-09T00:15:42.003Z,57.46
2018-08-09T00:16:08.132Z,57.18
2018-08-09T00:16:34.301Z,57.11
2018-08-09T00:17:00.433Z,57.28
2018-08-09T00:17:26.597Z,57.18
2018-08-09T00:17:52.736Z,57.46
2018-08-09T00:18:18.871Z,57.28
2018-08-09T00:18:45.006Z,57.08
2018-08-09T00:19:11.144Z,56.98
2018-08-09T00:19:37.307Z,57.37
2018-08-09T00:20:03.461Z,57.28
2018-08-09T00:20:29.597Z,57.46
2018-08-09T00:20:55.759Z,57.37
2018-08-09T00:21:21.892Z,57.37
2018-08-09T00:21:48.025Z,57.46
2018-08-09T00:22:14.161Z,57.86
2018-08-09T00:22:40.301Z,57.76
2018-08-09T00:23:06.439Z,57.56
2018-08-09T00:23:32.577Z,57.76
2018-08-09T00:23:58.731Z,57.76
2018-08-09T00:24:24.920Z,57.56
2018-08-09T00:24:51.050Z,57.66
2018-08-09T00:25:17.208Z,58.24
2018-08-09T00:25:43.344Z,57.56
2018-08-09T00:26:09.486Z,57.86
2018-08-09T00:26:35.623Z,57.56
2018-08-09T00:27:01.782Z,58.14
2018-08-09T00:27:27.919Z,57.56
2018-08-09T00:27:54.077Z,57.86
2018-08-09T00:28:20.209Z,57.86
2018-08-09T00:28:46.343Z,57.76
2018-08-09T00:29:12.493Z,57.46
2018-08-09T00:29:38.655Z,57.66
2018-08-09T00:30:04.792Z,57.44
2018-08-09T00:30:30.934Z,58.24
2018-08-09T00:30:57.095Z,57.76
2018-08-09T00:31:23.227Z,58.14
2018-08-09T00:31:49.365Z,57.82
2018-08-09T00:32:15.497Z,58.04
2018-08-09T00:32:41.655Z,57.86
2018-08-09T00:33:07.796Z,57.95
2018-08-09T00:33:33.928Z,58.63
2018-08-09T00:34:00.064Z,58.34
2018-08-09T00:34:26.198Z,58.34
2018-08-09T00:34:52.332Z,58.12
2018-08-09T00:35:18.486Z,58.12
2018-08-09T00:35:44.630Z,58.8
2018-08-09T00:36:10.770Z,58.98
2018-08-09T00:36:36.905Z,58.8
2018-08-09T00:37:03.037Z,58.89
2018-08-09T00:37:29.172Z,58.8
2018-08-09T00:37:55.315Z,59.18
2018-08-09T00:38:21.449Z,59.28
2018-08-09T00:38:47.581Z,59.08
2018-08-09T00:39:13.746Z,58.8
2018-08-09T00:39:39.885Z,58.89
2018-08-09T00:40:06.021Z,58.8
2018-08-09T00:40:32.176Z,59.08
2018-08-09T00:40:58.338Z,59.08
2018-08-09T00:41:24.467Z,59.28
2018-08-09T00:41:50.632Z,58.89
2018-08-09T00:42:16.778Z,58.98
2018-08-09T00:42:42.944Z,58.98
2018-08-09T00:43:09.080Z,59.38
2018-08-09T00:43:35.218Z,59.38
2018-08-09T00:44:01.359Z,59.18
2018-08-09T00:44:27.544Z,59.08
2018-08-09T00:44:53.678Z,58.98
2018-08-09T00:45:19.815Z,59.28
2018-08-09T00:45:45.981Z,59.38
2018-08-09T00:46:12.141Z,59.38
2018-08-09T00:46:38.279Z,59.08
2018-08-09T00:47:04.413Z,58.98
2018-08-09T00:47:30.573Z,59.08
2018-08-09T00:47:56.711Z,59.47
2018-08-09T00:48:22.850Z,59.47
2018-08-09T00:48:49.013Z,59.28
2018-08-09T00:49:15.142Z,59.47
2018-08-09T00:49:41.275Z,59.18
2018-08-09T00:50:07.456Z,59.38
2018-08-09T00:50:33.589Z,59.47
2018-08-09T00:50:59.727Z,59.66
2018-08-09T00:51:25.891Z,59.28
2018-08-09T00:51:52.020Z,59.66
2018-08-09T00:52:18.156Z,59.76
2018-08-09T00:52:44.295Z,59.76
2018-08-09T00:53:10.431Z,60.14
2018-08-09T00:53:36.570Z,60.05
2018-08-09T00:54:02.708Z,60.14
2018-08-09T00:54:28.864Z,59.86
2018-08-09T00:54:54.997Z,59.76
2018-08-09T00:55:21.138Z,59.95
2018-08-09T00:55:47.276Z,60.05
2018-08-09T00:56:13.411Z,59.76
2018-08-09T00:56:39.545Z,60.05
2018-08-09T00:57:05.678Z,59.86
2018-08-09T00:57:31.826Z,59.66
2018-08-09T00:57:57.964Z,59.76
2018-08-09T00:58:24.098Z,60.05
2018-08-09T00:58:50.231Z,59.76
2018-08-09T00:59:16.368Z,59.86
2018-08-09T00:59:42.529Z,59.95
2018-08-09T01:00:08.662Z,59.95
2018-08-09T01:00:34.845Z,60.05
2018-08-09T01:01:00.981Z,60.24
2018-08-09T01:01:27.114Z,59.92
2018-08-09T01:01:53.240Z,60.24
2018-08-09T01:02:19.399Z,60.11
2018-08-09T01:02:45.586Z,60.34
2018-08-09T01:03:11.729Z,60.41
2018-08-09T01:03:37.881Z,59.95
2018-08-09T01:04:04.043Z,60.14
2018-08-09T01:04:30.177Z,60.34
2018-08-09T01:04:56.315Z,60.44
2018-08-09T01:05:22.449Z,60.24
2018-08-09T01:05:48.587Z,60.24
2018-08-09T01:06:14.727Z,59.86
2018-08-09T01:06:40.861Z,60.05
2018-08-09T01:07:06.994Z,59.86
2018-08-09T01:07:33.135Z,59.95
2018-08-09T01:07:59.298Z,59.95
2018-08-09T01:08:25.460Z,60.44
2018-08-09T01:08:51.597Z,60.34
2018-08-09T01:09:17.740Z,60.41
2018-08-09T01:09:43.867Z,60.5
2018-08-09T01:10:10.008Z,60.99
2018-08-09T01:10:36.140Z,60.79
2018-08-09T01:11:02.271Z,60.63
2018-08-09T01:11:28.432Z,60.44
2018-08-09T01:11:54.569Z,60.72
2018-08-09T01:12:20.706Z,60.92
2018-08-09T01:12:46.839Z,60.82
2018-08-09T01:13:13.007Z,60.72
2018-08-09T01:13:39.135Z,60.82
2018-08-09T01:14:05.277Z,60.69
2018-08-09T01:14:31.404Z,60.92
2018-08-09T01:14:57.542Z,60.79
2018-08-09T01:15:23.674Z,60.44
2018-08-09T01:15:49.810Z,60.82
2018-08-09T01:16:15.951Z,60.99
2018-08-09T01:16:42.098Z,60.79
2018-08-09T01:17:08.248Z,61.18
2018-08-09T01:17:34.386Z,61.47
2018-08-09T01:18:00.521Z,61.66
2018-08-09T01:18:26.659Z,61.66
2018-08-09T01:18:52.800Z,61.6
2018-08-09T01:19:18.956Z,61.57
2018-08-09T01:19:45.086Z,61.47
2018-08-09T01:20:11.219Z,61.47
2018-08-09T01:20:37.379Z,61.37
2018-08-09T01:21:03.523Z,61.66
2018-08-09T01:21:29.646Z,61.47
2018-08-09T01:21:55.785Z,61.27
2018-08-09T01:22:21.920Z,61.5
2018-08-09T01:22:48.055Z,61.5
2018-08-09T01:23:14.190Z,61.47
2018-08-09T01:23:40.329Z,61.47
2018-08-09T01:24:06.484Z,61.5
2018-08-09T01:24:32.621Z,61.6
2018-08-09T01:24:58.760Z,61.18
2018-08-09T01:25:24.895Z,61.11
2018-08-09T01:25:51.025Z,61.95
2018-08-09T01:26:17.159Z,61.57
2018-08-09T01:26:43.296Z,61.6
2018-08-09T01:27:09.456Z,61.89
2018-08-09T01:27:35.592Z,61.08
2018-08-09T01:28:01.727Z,61.89
2018-08-09T01:28:27.868Z,61.57
2018-08-09T01:28:53.999Z,61.86
2018-08-09T01:29:20.138Z,61.27
2018-08-09T01:29:46.273Z,61.76
2018-08-09T01:30:12.427Z,62.24
2018-08-09T01:30:38.561Z,62.34
2018-08-09T01:31:04.727Z,62.79
2018-08-09T01:31:30.861Z,62.7
2018-08-09T01:31:56.991Z,62.5
2018-08-09T01:32:23.129Z,62.4
2018-08-09T01:32:49.305Z,62.31
2018-08-09T01:33:15.430Z,62.98
2018-08-09T01:33:41.588Z,63.08
2018-08-09T01:34:07.731Z,62.98
2018-08-09T01:34:33.859Z,62.5
2018-08-09T01:34:59.994Z,63.18
2018-08-09T01:35:26.160Z,62.7
2018-08-09T01:35:52.291Z,63.28
2018-08-09T01:36:18.430Z,63.47
2018-08-09T01:36:44.571Z,63.66
2018-08-09T01:37:10.726Z,63.56
2018-08-09T01:37:36.874Z,63.47
2018-08-09T01:38:03.016Z,63.85
2018-08-09T01:38:29.150Z,63.47
2018-08-09T01:38:55.285Z,63.28
2018-08-09T01:39:21.422Z,63.76
2018-08-09T01:39:47.589Z,63.85
2018-08-09T01:40:13.757Z,63.37
2018-08-09T01:40:39.895Z,63.56
2018-08-09T01:41:06.074Z,63.28
2018-08-09T01:41:32.210Z,63.56
2018-08-09T01:41:58.345Z,63.47
2018-08-09T01:42:24.500Z,63.66
2018-08-09T01:42:50.665Z,63.37
2018-08-09T01:43:16.820Z,63.56
2018-08-09T01:43:42.954Z,62.92
2018-08-09T01:44:09.083Z,62.73
2018-08-09T01:44:35.246Z,62.73
2018-08-09T01:45:01.389Z,62.7
2018-08-09T01:45:27.524Z,62.79
2018-08-09T01:45:53.647Z,62.98
2018-08-09T01:46:19.788Z,63.08
2018-08-09T01:46:45.923Z,63.28
2018-08-09T01:47:12.044Z,63.37
2018-08-09T01:47:38.179Z,63.18
2018-08-09T01:48:04.319Z,63.76
2018-08-09T01:48:30.453Z,63.66
2018-08-09T01:48:56.585Z,63.37
2018-08-09T01:49:22.721Z,63.37
2018-08-09T01:49:48.907Z,63.66
2018-08-09T01:50:15.045Z,64.14
2018-08-09T01:50:41.179Z,63.28
2018-08-09T01:51:07.338Z,63.28
2018-08-09T01:51:33.473Z,63.47
2018-08-09T01:51:59.606Z,63.56
2018-08-09T01:52:25.748Z,63.66
2018-08-09T01:52:51.893Z,63.76
2018-08-09T01:53:18.029Z,63.47
2018-08-09T01:53:44.163Z,63.08
2018-08-09T01:54:10.300Z,63.37
2018-08-09T01:54:36.435Z,63.28
2018-08-09T01:55:02.567Z,63.31
2018-08-09T01:55:28.698Z,63.28
2018-08-09T01:55:54.833Z,63.37
2018-08-09T01:56:20.967Z,63.4
2018-08-09T01:56:47.105Z,63.18
2018-08-09T01:57:13.259Z,63.37
2018-08-09T01:57:39.398Z,63.95
2018-08-09T01:58:05.532Z,63.47
2018-08-09T01:58:31.665Z,63.56
2018-08-09T01:58:57.801Z,63.37
2018-08-09T01:59:23.938Z,63.47
2018-08-09T01:59:50.071Z,63.56
2018-08-09T02:00:16.209Z,63.95
2018-08-09T02:00:42.343Z,64.63
2018-08-09T02:01:08.476Z,64.63
2018-08-09T02:01:34.619Z,64.72
2018-08-09T02:02:00.749Z,64.34
2018-08-09T02:02:26.911Z,64.63
2018-08-09T02:02:53.069Z,64.63
2018-08-09T02:03:19.228Z,64.53
2018-08-09T02:03:45.364Z,64.34
2018-08-09T02:04:11.497Z,64.63
2018-08-09T02:04:37.678Z,64.43
2018-08-09T02:05:03.817Z,64.14
2018-08-09T02:05:29.899Z,64.34
2018-08-09T02:05:56.035Z,64.43
2018-08-09T02:06:22.175Z,64.24
2018-08-09T02:06:48.339Z,64.63
2018-08-09T02:07:14.469Z,64.05
2018-08-09T02:07:40.604Z,64.72
2018-08-09T02:08:06.736Z,64.63
2018-08-09T02:08:33.029Z,64.63
2018-08-09T02:08:59.159Z,64.34
2018-08-09T02:09:25.296Z,64.63
2018-08-09T02:09:51.430Z,64.14
2018-08-09T02:10:17.594Z,64.53
2018-08-09T02:10:43.721Z,64.05
2018-08-09T02:11:09.858Z,63.95
2018-08-09T02:11:35.989Z,63.85
2018-08-09T02:12:02.150Z,63.85
2018-08-09T02:12:28.380Z,64.05
2018-08-09T02:12:54.473Z,63.56
2018-08-09T02:13:20.611Z,63.66
2018-08-09T02:13:46.786Z,63.47
2018-08-09T02:14:12.972Z,63.37
2018-08-09T02:14:39.132Z,63.47
2018-08-09T02:15:05.295Z,63.28
2018-08-09T02:15:31.451Z,63.47
2018-08-09T02:15:57.613Z,63.6
2018-08-09T02:16:23.745Z,63.76
2018-08-09T02:16:49.886Z,63.28
2018-08-09T02:17:16.043Z,63.28
2018-08-09T02:17:42.180Z,64.24
2018-08-09T02:18:08.315Z,64.24
2018-08-09T02:18:34.452Z,64.63
2018-08-09T02:19:00.582Z,64.82
2018-08-09T02:19:26.744Z,64.24
2018-08-09T02:19:52.891Z,64.43
2018-08-09T02:20:19.066Z,64.5
2018-08-09T02:20:45.204Z,65.17
2018-08-09T02:21:11.342Z,65.17
2018-08-09T02:21:37.507Z,65.66
2018-08-09T02:22:03.633Z,65.56
2018-08-09T02:22:29.777Z,65.47
2018-08-09T02:22:55.913Z,65.75
2018-08-09T02:23:22.056Z,66.05
2018-08-09T02:23:48.258Z,65.66
2018-08-09T02:24:14.398Z,66.14
2018-08-09T02:24:40.559Z,66.24
2018-08-09T02:25:06.752Z,66.05
2018-08-09T02:25:32.914Z,66.05
2018-08-09T02:25:59.050Z,65.66
2018-08-09T02:26:25.174Z,65.85
2018-08-09T02:26:51.317Z,65.56
2018-08-09T02:27:17.470Z,65.47
2018-08-09T02:27:43.600Z,65.27
2018-08-09T02:28:09.738Z,65.47
2018-08-09T02:28:35.901Z,65.66
2018-08-09T02:29:02.037Z,65.27
2018-08-09T02:29:28.195Z,65.47
2018-08-09T02:29:54.338Z,65.47
2018-08-09T02:30:20.494Z,65.66
2018-08-09T02:30:46.626Z,65.37
2018-08-09T02:31:12.792Z,65.85
2018-08-09T02:31:38.919Z,65.85
2018-08-09T02:32:05.058Z,65.66
2018-08-09T02:32:31.207Z,66.24
2018-08-09T02:32:57.378Z,66.49
2018-08-09T02:33:23.558Z,66.11
2018-08-09T02:33:49.710Z,66.88
2018-08-09T02:34:15.852Z,66.88
2018-08-09T02:34:42.076Z,67.07
2018-08-09T02:35:08.227Z,67.27
2018-08-09T02:35:34.396Z,67.36
2018-08-09T02:36:00.531Z,67.36
2018-08-09T02:36:26.736Z,68.43
2018-08-09T02:36:52.968Z,68.13
2018-08-09T02:37:19.126Z,67.81
2018-08-09T02:37:45.268Z,67.91
2018-08-09T02:38:11.451Z,68.1
2018-08-09T02:38:37.617Z,68.49
2018-08-09T02:39:03.811Z,68.59
2018-08-09T02:39:29.969Z,68.87
2018-08-09T02:39:56.140Z,68.59
2018-08-09T02:40:22.251Z,68.49
2018-08-09T02:40:48.419Z,68.68
2018-08-09T02:41:14.598Z,68.77
2018-08-09T02:41:40.765Z,68.87
2018-08-09T02:42:06.904Z,68.59
2018-08-09T02:42:33.055Z,68.68
2018-08-09T02:42:59.233Z,69.07
2018-08-09T02:43:25.411Z,69.45
2018-08-09T02:43:51.593Z,69.64
2018-08-09T02:44:17.715Z,69.45
2018-08-09T02:44:43.888Z,69.45
2018-08-09T02:45:10.094Z,69.35
2018-08-09T02:45:36.256Z,69.26
2018-08-09T02:46:02.429Z,69.55
2018-08-09T02:46:28.571Z,69.26
2018-08-09T02:46:54.824Z,69.26
2018-08-09T02:47:20.937Z,69.16
2018-08-09T02:47:47.123Z,69.35
2018-08-09T02:48:13.269Z,69.55
2018-08-09T02:48:39.441Z,69.35
2018-08-09T02:49:05.648Z,69.35
2018-08-09T02:49:31.781Z,68.77
2018-08-09T02:49:57.935Z,69.07
2018-08-09T02:50:24.083Z,68.87
2018-08-09T02:50:50.222Z,69.07
2018-08-09T02:51:16.405Z,68.97
2018-08-09T02:51:42.615Z,68.77
2018-08-09T02:52:08.778Z,68.59
2018-08-09T02:52:34.960Z,68.77
2018-08-09T02:53:01.102Z,68.77
2018-08-09T02:53:27.232Z,68.87
2018-08-09T02:53:53.439Z,68.68
2018-08-09T02:54:19.656Z,68.87
2018-08-09T02:54:45.860Z,69.35
2018-08-09T02:55:12.030Z,69.55
2018-08-09T02:55:38.220Z,69.26
2018-08-09T02:56:04.376Z,68.77
2018-08-09T02:56:30.512Z,69.07
2018-08-09T02:56:56.675Z,68.77
2018-08-09T02:57:22.804Z,68.77
2018-08-09T02:57:48.975Z,68.97
2018-08-09T02:58:15.164Z,68.59
2018-08-09T02:58:41.298Z,68.59
2018-08-09T02:59:07.519Z,68.33
2018-08-09T02:59:33.833Z,68.62
2018-08-09T02:59:59.964Z,68.13
2018-08-09T03:00:26.205Z,68.49
2018-08-09T03:00:52.385Z,68.59
2018-08-09T03:01:18.602Z,68.59
2018-08-09T03:01:44.780Z,69.16
2018-08-09T03:02:10.916Z,68.97
2018-08-09T03:02:37.075Z,68.77
2018-08-09T03:03:03.236Z,68.49
2018-08-09T03:03:29.372Z,68.39
2018-08-09T03:03:55.503Z,69.07
2018-08-09T03:04:21.661Z,69.45
2018-08-09T03:04:47.817Z,69.45
2018-08-09T03:05:14.017Z,69.35
2018-08-09T03:05:40.151Z,69.26
2018-08-09T03:06:06.333Z,69.84
2018-08-09T03:06:32.486Z,69.74
2018-08-09T03:06:58.647Z,70.09
2018-08-09T03:07:24.806Z,70.28
2018-08-09T03:07:50.956Z,70.76
2018-08-09T03:08:17.163Z,70.19
2018-08-09T03:08:43.333Z,70.96
2018-08-09T03:09:09.526Z,70.96
2018-08-09T03:09:35.741Z,71.15
2018-08-09T03:10:01.883Z,71.12
2018-08-09T03:10:28.105Z,71.6
2018-08-09T03:10:54.290Z,71.98
2018-08-09T03:11:20.429Z,72.08
2018-08-09T03:11:46.616Z,71.89
2018-08-09T03:12:12.814Z,72.37
2018-08-09T03:12:38.947Z,72.08
2018-08-09T03:13:05.102Z,72.56
2018-08-09T03:13:31.243Z,72.56
2018-08-09T03:13:57.375Z,72.75
2018-08-09T03:14:23.511Z,72.66
2018-08-09T03:14:49.667Z,72.75
2018-08-09T03:15:15.805Z,72.47
2018-08-09T03:15:41.946Z,72.37
2018-08-09T03:16:08.106Z,71.98
2018-08-09T03:16:34.263Z,72.08
2018-08-09T03:17:00.416Z,71.89
2018-08-09T03:17:26.556Z,71.79
2018-08-09T03:17:52.738Z,71.98
2018-08-09T03:18:18.872Z,72.08
2018-08-09T03:18:45.006Z,72.37
2018-08-09T03:19:11.138Z,72.75
2018-08-09T03:19:37.278Z,72.75
2018-08-09T03:20:03.452Z,72.56
2018-08-09T03:20:29.594Z,72.66
2018-08-09T03:20:55.725Z,72.47
2018-08-09T03:21:21.870Z,72.37
2018-08-09T03:21:48.001Z,73.05
2018-08-09T03:22:14.137Z,72.85
2018-08-09T03:22:40.288Z,72.81
2018-08-09T03:23:06.428Z,72.75
2018-08-09T03:23:32.591Z,72.75
2018-08-09T03:23:58.741Z,72.75
2018-08-09T03:24:24.970Z,73.05
2018-08-09T03:24:51.053Z,72.75
2018-08-09T03:25:17.194Z,72.53
2018-08-09T03:25:43.323Z,72.66
2018-08-09T03:26:09.466Z,72.75
2018-08-09T03:26:35.599Z,73.05
2018-08-09T03:27:01.754Z,73.05
2018-08-09T03:27:27.896Z,73.1
2018-08-09T03:27:54.081Z,73.58
2018-08-09T03:28:20.368Z,73.58
2018-08-09T03:28:46.551Z,73.78
2018-08-09T03:29:12.706Z,73.88
2018-08-09T03:29:38.853Z,73.39
2018-08-09T03:30:04.997Z,73.88
2018-08-09T03:30:31.131Z,73.68
2018-08-09T03:30:57.321Z,73.97
2018-08-09T03:31:23.501Z,73.78
2018-08-09T03:31:49.688Z,73.78
2018-08-09T03:32:15.911Z,74.45
2018-08-09T03:32:42.165Z,74.55
2018-08-09T03:33:08.301Z,74.36
2018-08-09T03:33:34.446Z,74.36
2018-08-09T03:34:00.606Z,74.45
2018-08-09T03:34:26.756Z,74.84
2018-08-09T03:34:52.881Z,74.93
2018-08-09T03:35:19.066Z,74.26
2018-08-09T03:35:45.509Z,74.26
2018-08-09T03:36:11.672Z,74.55
2018-08-09T03:36:37.811Z,74.45
2018-08-09T03:37:03.987Z,74.65
2018-08-09T03:37:30.178Z,74.45
2018-08-09T03:37:56.318Z,73.78
2018-08-09T03:38:22.530Z,73.49
2018-08-09T03:38:48.665Z,73.68
2018-08-09T03:39:14.803Z,73.68
2018-08-09T03:39:40.963Z,73.49
2018-08-09T03:40:07.102Z,73.68
2018-08-09T03:40:33.258Z,73.88
2018-08-09T03:40:59.434Z,73.78
2018-08-09T03:41:25.568Z,74.74
2018-08-09T03:41:51.751Z,74.55
2018-08-09T03:42:17.880Z,74.65
2018-08-09T03:42:44.021Z,74.26
2018-08-09T03:43:10.152Z,74.55
2018-08-09T03:43:36.339Z,75.03
2018-08-09T03:44:02.587Z,74.93
2018-08-09T03:44:28.663Z,75.13
2018-08-09T03:44:54.800Z,75.13
2018-08-09T03:45:20.973Z,75.03
2018-08-09T03:45:47.112Z,74.74
2018-08-09T03:46:13.266Z,74.07
2018-08-09T03:46:39.407Z,74.45
2018-08-09T03:47:05.604Z,74.65
2018-08-09T03:47:31.763Z,74.65
2018-08-09T03:47:57.951Z,73.78
2018-08-09T03:48:24.086Z,73.97
2018-08-09T03:48:50.356Z,73.49
2018-08-09T03:49:16.497Z,73.78
2018-08-09T03:49:42.654Z,73.78
2018-08-09T03:50:08.815Z,73.3
2018-08-09T03:50:34.951Z,73.2
2018-08-09T03:51:01.089Z,73.39
2018-08-09T03:51:27.225Z,73.14
2018-08-09T03:51:53.362Z,73.33
2018-08-09T03:52:19.497Z,72.56
2018-08-09T03:52:45.637Z,72.85
2018-08-09T03:53:11.857Z,72.85
2018-08-09T03:53:38.323Z,72.75
2018-08-09T03:54:04.456Z,72.75
2018-08-09T03:54:30.619Z,72.66
2018-08-09T03:54:56.859Z,72.75
2018-08-09T03:55:23.093Z,72.95
2018-08-09T03:55:49.406Z,72.27
2018-08-09T03:56:15.543Z,72.37
2018-08-09T03:56:41.780Z,72.66
2018-08-09T03:57:07.931Z,72.85
2018-08-09T03:57:34.386Z,72.37
2018-08-09T03:58:00.581Z,71.7
2018-08-09T03:58:26.717Z,71.89
2018-08-09T03:58:52.866Z,71.79
2018-08-09T03:59:18.999Z,71.98
2018-08-09T03:59:45.198Z,71.5
2018-08-09T04:00:11.373Z,71.64
2018-08-09T04:00:37.467Z,71.41
2018-08-09T04:01:03.631Z,71.31
2018-08-09T04:01:29.764Z,71.06
2018-08-09T04:01:55.905Z,71.34
2018-08-09T04:02:22.090Z,71.54
2018-08-09T04:02:48.262Z,71.34
2018-08-09T04:03:14.801Z,70.96
2018-08-09T04:03:41.034Z,70.76
2018-08-09T04:04:07.171Z,70.38
2018-08-09T04:04:33.332Z,70.28
2018-08-09T04:04:59.466Z,70.38
2018-08-09T04:05:25.611Z,70.76
2018-08-09T04:05:51.740Z,71.25
2018-08-09T04:06:17.876Z,70.76
2018-08-09T04:06:44.036Z,70.38
2018-08-09T04:07:10.177Z,70.19
2018-08-09T04:07:36.309Z,70.48
2018-08-09T04:08:02.441Z,70.57
2018-08-09T04:08:28.580Z,70.38
2018-08-09T04:08:54.713Z,70.38
2018-08-09T04:09:20.855Z,70.32
2018-08-09T04:09:47.079Z,70
2018-08-09T04:10:13.266Z,70.57
2018-08-09T04:10:39.376Z,69.9
2018-08-09T04:11:05.518Z,69.93
2018-08-09T04:11:31.662Z,70
2018-08-09T04:11:57.908Z,69.84
2018-08-09T04:12:23.950Z,70.32
2018-08-09T04:12:50.089Z,70
2018-08-09T04:13:16.231Z,69.93
2018-08-09T04:13:42.359Z,69.71
2018-08-09T04:14:08.499Z,69.93
2018-08-09T04:14:34.662Z,70
2018-08-09T04:15:00.825Z,69.93
2018-08-09T04:15:26.961Z,69.9
2018-08-09T04:15:53.104Z,69.51
2018-08-09T04:16:19.240Z,69.8
2018-08-09T04:16:45.373Z,69.61
2018-08-09T04:17:11.509Z,69.61
2018-08-09T04:17:37.654Z,70.09
2018-08-09T04:18:03.789Z,70.09
2018-08-09T04:18:29.950Z,70.28
2018-08-09T04:18:56.113Z,70.19
2018-08-09T04:19:22.243Z,70.76
2018-08-09T04:19:48.390Z,70.67
2018-08-09T04:20:14.523Z,70.19
2018-08-09T04:20:40.661Z,70.48
2018-08-09T04:21:06.798Z,70.76
2018-08-09T04:21:32.958Z,70.86
2018-08-09T04:21:59.096Z,71.34
2018-08-09T04:22:25.260Z,71.25
2018-08-09T04:22:51.401Z,71.44
2018-08-09T04:23:17.539Z,70.48
2018-08-09T04:23:43.680Z,70.76
2018-08-09T04:24:09.811Z,70.28
2018-08-09T04:24:35.952Z,70.57
2018-08-09T04:25:02.107Z,70.38
2018-08-09T04:25:28.251Z,70.57
2018-08-09T04:25:54.391Z,70.76
2018-08-09T04:26:20.557Z,70.09
2018-08-09T04:26:46.691Z,70.57
2018-08-09T04:27:12.825Z,70.09
2018-08-09T04:27:38.959Z,70
2018-08-09T04:28:05.093Z,69.8
2018-08-09T04:28:31.253Z,69.8
2018-08-09T04:28:57.411Z,69.9
2018-08-09T04:29:23.546Z,70.09
2018-08-09T04:29:49.679Z,70.19
2018-08-09T04:30:15.822Z,70
2018-08-09T04:30:41.953Z,69.8
2018-08-09T04:31:08.097Z,69.51
2018-08-09T04:31:34.228Z,69.32
2018-08-09T04:32:00.394Z,69.64
2018-08-09T04:32:26.529Z,69.74
2018-08-09T04:32:52.692Z,69.45
2018-08-09T04:33:18.832Z,69.42
2018-08-09T04:33:44.962Z,69.42
2018-08-09T04:34:11.106Z,69.23
2018-08-09T04:34:37.245Z,69.13
2018-08-09T04:35:03.405Z,69.32
2018-08-09T04:35:29.541Z,69.45
2018-08-09T04:35:55.682Z,69.84
2018-08-09T04:36:21.817Z,69.32
2018-08-09T04:36:47.957Z,69.32
2018-08-09T04:37:14.112Z,69.71
2018-08-09T04:37:40.278Z,70.09
2018-08-09T04:38:06.413Z,70.38
2018-08-09T04:38:32.550Z,70.28
2018-08-09T04:38:58.686Z,70.19
2018-08-09T04:39:24.840Z,70.44
2018-08-09T04:39:51.008Z,70.35
2018-08-09T04:40:17.137Z,70.44
2018-08-09T04:40:43.294Z,71.12
2018-08-09T04:41:09.431Z,70.83
2018-08-09T04:41:35.570Z,71.22
2018-08-09T04:42:01.710Z,71.7
2018-08-09T04:42:27.847Z,71.31
2018-08-09T04:42:53.999Z,71.98
2018-08-09T04:43:20.152Z,71.6
2018-08-09T04:43:46.306Z,71.7
2018-08-09T04:44:12.482Z,71.6
2018-08-09T04:44:38.611Z,71.98
2018-08-09T04:45:04.747Z,72.08
2018-08-09T04:45:30.896Z,71.89
2018-08-09T04:45:57.033Z,71.6
2018-08-09T04:46:23.176Z,71.89
2018-08-09T04:46:49.318Z,71.6
2018-08-09T04:47:15.454Z,71.98
2018-08-09T04:47:41.597Z,71.6
2018-08-09T04:48:07.723Z,72.08
2018-08-09T04:48:33.894Z,71.98
2018-08-09T04:49:00.026Z,71.79
2018-08-09T04:49:26.175Z,71.89
2018-08-09T04:49:52.297Z,71.79
2018-08-09T04:50:18.436Z,71.79
2018-08-09T04:50:44.573Z,71.89
2018-08-09T04:51:10.709Z,71.79
2018-08-09T04:51:36.848Z,71.98
2018-08-09T04:52:03.004Z,72.08
2018-08-09T04:52:29.143Z,71.7
2018-08-09T04:52:55.302Z,71.98
2018-08-09T04:53:21.433Z,71.89
2018-08-09T04:53:47.568Z,71.89
2018-08-09T04:54:13.707Z,71.7
2018-08-09T04:54:39.857Z,71.41
2018-08-09T04:55:06.000Z,71.6
2018-08-09T04:55:32.131Z,71.25
2018-08-09T04:55:58.266Z,70.28
2018-08-09T04:56:24.422Z,70.57
2018-08-09T04:56:50.555Z,70.09
2018-08-09T04:57:16.688Z,70.19
2018-08-09T04:57:42.823Z,70.19
2018-08-09T04:58:09.047Z,70.54
2018-08-09T04:58:35.149Z,70.57
2018-08-09T04:59:01.284Z,70.19
2018-08-09T04:59:27.417Z,70.73
2018-08-09T04:59:53.553Z,70.44
2018-08-09T05:00:19.712Z,70.54
2018-08-09T05:00:45.850Z,70.06
2018-08-09T05:01:11.993Z,70.35
2018-08-09T05:01:38.125Z,71.25
2018-08-09T05:02:04.253Z,70.73
2018-08-09T05:02:30.391Z,70.38
2018-08-09T05:02:56.579Z,70.38
2018-08-09T05:03:22.738Z,70
2018-08-09T05:03:48.891Z,70
2018-08-09T05:04:15.032Z,69.9
2018-08-09T05:04:41.189Z,69.61
2018-08-09T05:05:07.362Z,69.35
2018-08-09T05:05:33.499Z,69.35
2018-08-09T05:05:59.633Z,68.77
2018-08-09T05:06:25.817Z,68.68
2018-08-09T05:06:51.950Z,68.87
2018-08-09T05:07:18.111Z,68.68
2018-08-09T05:07:44.241Z,68.77
2018-08-09T05:08:10.376Z,68.97
2018-08-09T05:08:36.520Z,68.87
2018-08-09T05:09:02.655Z,68.87
2018-08-09T05:09:28.814Z,68.68
2018-08-09T05:09:54.996Z,68.77
2018-08-09T05:10:21.251Z,68.77
2018-08-09T05:10:47.321Z,68.59
2018-08-09T05:11:13.479Z,68.87
2018-08-09T05:11:39.628Z,68.19
2018-08-09T05:12:05.779Z,67.71
2018-08-09T05:12:31.919Z,67.81
2018-08-09T05:12:58.058Z,68.1
2018-08-09T05:13:24.225Z,68.45
2018-08-09T05:13:50.365Z,68.74
2018-08-09T05:14:16.504Z,68.74
2018-08-09T05:14:42.640Z,68.77
2018-08-09T05:15:08.769Z,68.59
2018-08-09T05:15:34.910Z,68.19
2018-08-09T05:16:01.148Z,68.29
2018-08-09T05:16:27.206Z,68.1
2018-08-09T05:16:53.335Z,67.91
2018-08-09T05:17:19.498Z,68.01
2018-08-09T05:17:45.633Z,67.43
2018-08-09T05:18:11.796Z,67.62
2018-08-09T05:18:37.934Z,67.23
2018-08-09T05:19:04.069Z,67.33
2018-08-09T05:19:30.203Z,67.43
2018-08-09T05:19:56.345Z,67.23
2018-08-09T05:20:22.488Z,67.33
2018-08-09T05:20:48.619Z,66.66
2018-08-09T05:21:14.747Z,66.66
2018-08-09T05:21:40.886Z,67.33
2018-08-09T05:22:07.028Z,67.43
2018-08-09T05:22:33.185Z,66.94
2018-08-09T05:22:59.398Z,67.14
2018-08-09T05:23:25.512Z,66.66
2018-08-09T05:23:51.662Z,66.27
2018-08-09T05:24:17.799Z,66.66
2018-08-09T05:24:43.937Z,66.46
2018-08-09T05:25:10.076Z,66.94
2018-08-09T05:25:36.205Z,67.52
2018-08-09T05:26:02.344Z,66.46
2018-08-09T05:26:28.564Z,66.75
2018-08-09T05:26:54.641Z,66.75
2018-08-09T05:27:20.783Z,67.33
2018-08-09T05:27:46.919Z,67.23
2018-08-09T05:28:13.053Z,66.94
2018-08-09T05:28:39.217Z,66.75
2018-08-09T05:29:05.356Z,66.66
2018-08-09T05:29:31.502Z,66.75
2018-08-09T05:29:57.660Z,66.85
2018-08-09T05:30:23.797Z,66.66
2018-08-09T05:30:49.936Z,66.66
2018-08-09T05:31:16.100Z,66.75
2018-08-09T05:31:42.232Z,66.75
2018-08-09T05:32:08.369Z,66.17
2018-08-09T05:32:34.526Z,66.94
2018-08-09T05:33:00.657Z,66.46
2018-08-09T05:33:26.797Z,67.04
2018-08-09T05:33:52.934Z,66.17
2018-08-09T05:34:19.088Z,66.46
2018-08-09T05:34:45.223Z,66.66
2018-08-09T05:35:11.360Z,66.85
2018-08-09T05:35:37.488Z,66.66
2018-08-09T05:36:03.642Z,66.88
2018-08-09T05:36:29.782Z,66.88
2018-08-09T05:36:55.916Z,66.88
2018-08-09T05:37:22.053Z,66.46
2018-08-09T05:37:48.208Z,66.3